Time;durP1;ratioP1;P1;durP2;ratioP2;P2;SDS_P1;SDS_P2;PMS_P1;PMS_P2;Temp;Humidity;BMP_temperature;BMP_pressure;BME280_temperature;BME280_humidity;BME280_pressure;Samples;Min_cycle;Max_cycle;Signal;HPM_P1;HPM_P2
2022/10/28 00:01:17;;;;;;;31.73;14.95;;;;;;;;;;4971551;28;20029;-65
2022/10/28 00:03:50;;;;;;;27.20;14.55;;;;;;;;;;4971328;28;20453;-64
2022/10/28 00:06:18;;;;;;;27.48;14.63;;;;;;;;;;4972868;28;20034;-64
2022/10/28 00:08:43;;;;;;;25.23;14.02;;;;;;;;;;4971837;28;20456;-65
2022/10/28 00:11:26;;;;;;;21.73;13.15;;;;;;;;;;4954029;28;20333;-65
2022/10/28 00:13:55;;;;;;;23.77;13.00;;;;;;;;;;4971117;28;20456;-65
2022/10/28 00:16:24;;;;;;;21.73;13.15;;;;;;;;;;4971258;28;20344;-65
2022/10/28 00:18:52;;;;;;;22.10;13.00;;;;;;;;;;4970952;28;20459;-65
2022/10/28 00:21:20;;;;;;;22.13;12.65;;;;;;;;;;4954134;28;20440;-64
2022/10/28 00:23:46;;;;;;;21.42;12.32;;;;;;;;;;4953160;28;20411;-65
2022/10/28 00:26:16;;;;;;;23.85;13.57;;;;;;;;;;4970902;28;20404;-65
2022/10/28 00:28:49;;;;;;;24.92;13.10;;;;;;;;;;4971158;28;20389;-65
2022/10/28 00:31:17;;;;;;;24.15;14.43;;;;;;;;;;4953071;28;20383;-65
2022/10/28 00:33:43;;;;;;;28.77;15.63;;;;;;;;;;4972465;28;20440;-65
2022/10/28 00:36:11;;;;;;;25.25;14.15;;;;;;;;;;4970880;28;20368;-64
2022/10/28 00:38:37;;;;;;;23.60;14.93;;;;;;;;;;4970954;28;20442;-65
2022/10/28 00:41:03;;;;;;;29.63;15.38;;;;;;;;;;4972105;28;20047;-65
2022/10/28 00:43:33;;;;;;;28.50;13.93;;;;;;;;;;4971894;28;20471;-64
2022/10/28 00:45:58;;;;;;;24.25;13.52;;;;;;;;;;4970498;28;20410;-65
2022/10/28 00:48:24;;;;;;;23.67;12.60;;;;;;;;;;4970861;28;20463;-64
2022/10/28 00:50:53;;;;;;;20.13;12.20;;;;;;;;;;4972423;28;20372;-65
2022/10/28 00:53:20;;;;;;;;;;;;;;;;;;4952947;28;20021;-65
2022/10/28 00:55:46;;;;;;;20.13;10.95;;;;;;;;;;4970515;28;20287;-64
2022/10/28 00:58:12;;;;;;;20.63;11.48;;;;;;;;;;4970429;28;20025;-65
2022/10/28 01:00:37;;;;;;;22.48;11.60;;;;;;;;;;4952369;28;20088;-65
2022/10/28 01:03:03;;;;;;;20.83;12.32;;;;;;;;;;4981274;28;20483;-65
2022/10/28 01:05:30;;;;;;;18.17;10.32;;;;;;;;;;4970244;28;20543;-65
2022/10/28 01:08:00;;;;;;;18.83;10.38;;;;;;;;;;4970953;28;20451;-65
2022/10/28 01:10:38;;;;;;;17.60;10.30;;;;;;;;;;4971766;28;20060;-65
2022/10/28 01:13:22;;;;;;;18.98;10.50;;;;;;;;;;4953149;28;20452;-65
2022/10/28 01:15:55;;;;;;;18.05;11.18;;;;;;;;;;4971022;28;20379;-65
2022/10/28 01:18:23;;;;;;;17.23;10.30;;;;;;;;;;4970067;28;20475;-65
2022/10/28 01:21:18;;;;;;;19.58;9.98;;;;;;;;;;4970103;28;20385;-65
2022/10/28 01:24:31;;;;;;;16.10;9.52;;;;;;;;;;4952076;28;20390;-65
2022/10/28 01:27:14;;;;;;;18.75;11.18;;;;;;;;;;4947034;28;20423;-65
2022/10/28 01:30:02;;;;;;;18.38;11.43;;;;;;;;;;4970115;28;20462;-65
2022/10/28 01:32:30;;;;;;;16.45;10.52;;;;;;;;;;4962978;28;20468;-65
2022/10/28 01:35:18;;;;;;;21.80;11.83;;;;;;;;;;4969701;28;20464;-65
2022/10/28 01:37:55;;;;;;;18.77;10.27;;;;;;;;;;4952049;28;20739;-65
2022/10/28 01:40:50;;;;;;;17.83;9.55;;;;;;;;;;4970301;28;20432;-65
2022/10/28 01:43:25;;;;;;;18.45;10.07;;;;;;;;;;4971106;28;20045;-65
2022/10/28 01:45:57;;;;;;;18.73;11.18;;;;;;;;;;4951597;28;20455;-65
2022/10/28 01:48:38;;;;;;;18.70;9.73;;;;;;;;;;4952060;28;20461;-65
2022/10/28 01:51:47;;;;;;;15.88;9.48;;;;;;;;;;4951792;28;20033;-65
2022/10/28 01:54:15;;;;;;;15.60;9.95;;;;;;;;;;4956023;28;20380;-65
2022/10/28 01:56:41;;;;;;;14.98;10.30;;;;;;;;;;4951429;28;20348;-65
2022/10/28 01:59:12;;;;;;;17.50;10.18;;;;;;;;;;4951636;28;20368;-65
2022/10/28 02:01:38;;;;;;;16.42;9.73;;;;;;;;;;4951662;28;20409;-65
2022/10/28 02:04:03;;;;;;;20.92;10.15;;;;;;;;;;4968729;28;20337;-65
2022/10/28 02:06:30;;;;;;;26.23;11.98;;;;;;;;;;4968677;28;20440;-65
2022/10/28 02:09:17;;;;;;;17.60;10.35;;;;;;;;;;4951285;28;20464;-65
2022/10/28 02:12:13;;;;;;;16.67;10.52;;;;;;;;;;4970421;28;20318;-66
2022/10/28 02:14:55;;;;;;;20.70;9.88;;;;;;;;;;4970080;28;20515;-65
2022/10/28 02:17:46;;;;;;;18.23;9.68;;;;;;;;;;4968864;28;20471;-65
2022/10/28 02:20:26;;;;;;;16.42;9.15;;;;;;;;;;4968969;28;20345;-65
2022/10/28 02:22:59;;;;;;;19.38;9.63;;;;;;;;;;4968686;28;20460;-65
2022/10/28 02:25:31;;;;;;;15.30;9.57;;;;;;;;;;4950906;28;20419;-65
2022/10/28 02:28:14;;;;;;;20.90;8.80;;;;;;;;;;4951483;28;20364;-65
2022/10/28 02:30:48;;;;;;;14.32;8.95;;;;;;;;;;4969095;28;20328;-65
2022/10/28 02:33:20;;;;;;;18.42;8.50;;;;;;;;;;4950653;28;20456;-65
2022/10/28 02:35:54;;;;;;;16.85;10.38;;;;;;;;;;4950908;28;20095;-65
2022/10/28 02:38:25;;;;;;;15.32;8.70;;;;;;;;;;4950818;28;20029;-65
2022/10/28 02:40:53;;;;;;;13.63;7.95;;;;;;;;;;4950700;28;20160;-65
2022/10/28 02:43:19;;;;;;;17.20;9.70;;;;;;;;;;4968535;28;20337;-65
2022/10/28 02:45:48;;;;;;;17.15;8.65;;;;;;;;;;4950779;28;20463;-65
2022/10/28 02:48:21;;;;;;;13.73;8.65;;;;;;;;;;4950682;28;20453;-65
2022/10/28 02:50:52;;;;;;;13.98;7.90;;;;;;;;;;4950708;28;20530;-65
2022/10/28 02:53:26;;;;;;;13.65;8.90;;;;;;;;;;4950865;28;20510;-65
2022/10/28 02:55:53;;;;;;;13.80;8.70;;;;;;;;;;4950395;28;20388;-65
2022/10/28 02:58:19;;;;;;;16.13;9.68;;;;;;;;;;4950722;28;20030;-66
2022/10/28 03:00:45;;;;;;;13.55;9.02;;;;;;;;;;4968338;28;20484;-65
2022/10/28 03:03:11;;;;;;;14.48;8.70;;;;;;;;;;4968283;28;20483;-65
2022/10/28 03:05:36;;;;;;;18.48;8.98;;;;;;;;;;4950272;28;20476;-65
2022/10/28 03:08:01;;;;;;;16.63;9.38;;;;;;;;;;4969212;28;20313;-65
2022/10/28 03:10:27;;;;;;;13.77;8.93;;;;;;;;;;4968029;28;20041;-65
2022/10/28 03:12:52;;;;;;;14.07;9.25;;;;;;;;;;4969932;28;20428;-65
2022/10/28 03:15:17;;;;;;;18.25;10.32;;;;;;;;;;4969028;28;20351;-65
2022/10/28 03:17:43;;;;;;;21.85;9.23;;;;;;;;;;4967730;28;20444;-65
2022/10/28 03:20:08;;;;;;;15.85;8.82;;;;;;;;;;4968121;28;20433;-65
2022/10/28 03:22:34;;;;;;;19.05;10.95;;;;;;;;;;4968206;28;20528;-65
2022/10/28 03:24:59;;;;;;;14.73;8.63;;;;;;;;;;4968262;28;20456;-65
2022/10/28 03:27:24;;;;;;;16.20;9.40;;;;;;;;;;4967903;28;20451;-65
2022/10/28 03:29:50;;;;;;;15.40;8.60;;;;;;;;;;4968084;28;20427;-66
2022/10/28 03:32:15;;;;;;;17.27;8.68;;;;;;;;;;4967765;28;20465;-65
2022/10/28 03:34:40;;;;;;;14.85;9.73;;;;;;;;;;4969249;28;20379;-65
2022/10/28 03:37:06;;;;;;;16.55;8.88;;;;;;;;;;4967787;28;20441;-65
2022/10/28 03:39:31;;;;;;;15.57;8.77;;;;;;;;;;4968726;28;20368;-65
2022/10/28 03:41:57;;;;;;;19.10;10.18;;;;;;;;;;4968163;28;20449;-65
2022/10/28 03:44:22;;;;;;;18.15;10.18;;;;;;;;;;4967784;28;20092;-65
2022/10/28 03:46:47;;;;;;;16.30;9.82;;;;;;;;;;4967696;28;20579;-65
2022/10/28 03:49:13;;;;;;;19.90;9.02;;;;;;;;;;4967573;28;20411;-65
2022/10/28 03:51:38;;;;;;;15.75;9.25;;;;;;;;;;4967912;28;20444;-65
2022/10/28 03:54:04;;;;;;;22.05;10.40;;;;;;;;;;4967924;28;20455;-65
2022/10/28 03:56:30;;;;;;;16.55;10.05;;;;;;;;;;4967400;28;20379;-65
2022/10/28 03:58:55;;;;;;;17.75;9.73;;;;;;;;;;4968325;28;20044;-65
2022/10/28 04:01:20;;;;;;;19.77;9.13;;;;;;;;;;4967663;28;20033;-65
2022/10/28 04:03:46;;;;;;;16.92;9.55;;;;;;;;;;4969670;28;20385;-65
2022/10/28 04:06:11;;;;;;;18.17;9.98;;;;;;;;;;4967761;28;20094;-65
2022/10/28 04:08:36;;;;;;;18.70;10.57;;;;;;;;;;4967398;28;20482;-65
2022/10/28 04:11:02;;;;;;;21.05;9.57;;;;;;;;;;4967245;28;20352;-65
2022/10/28 04:13:27;;;;;;;16.75;10.10;;;;;;;;;;4967612;28;20095;-65
2022/10/28 04:15:52;;;;;;;22.33;9.43;;;;;;;;;;4967653;28;20422;-65
2022/10/28 04:18:18;;;;;;;15.65;9.38;;;;;;;;;;4949805;28;20466;-65
2022/10/28 04:20:44;;;;;;;19.23;9.52;;;;;;;;;;4967388;28;20464;-65
2022/10/28 04:23:13;;;;;;;18.80;10.32;;;;;;;;;;4949409;28;20502;-65
2022/10/28 04:25:39;;;;;;;;;;;;;;;;;;4968926;28;20119;-65
2022/10/28 04:28:04;;;;;;;17.75;8.57;;;;;;;;;;4968039;28;20027;-65
2022/10/28 04:30:29;;;;;;;18.85;9.70;;;;;;;;;;4972162;28;20367;-65
2022/10/28 04:32:54;;;;;;;20.50;9.07;;;;;;;;;;4970381;28;20472;-66
2022/10/28 04:35:20;;;;;;;18.13;9.82;;;;;;;;;;4971513;28;20448;-65
2022/10/28 04:37:45;;;;;;;16.02;9.07;;;;;;;;;;4970774;28;20452;-65
2022/10/28 04:40:11;;;;;;;15.70;9.52;;;;;;;;;;4970529;28;20419;-66
2022/10/28 04:42:36;;;;;;;15.95;9.00;;;;;;;;;;4970771;28;20429;-65
2022/10/28 04:45:02;;;;;;;16.50;9.85;;;;;;;;;;4971865;28;20328;-65
2022/10/28 04:47:27;;;;;;;18.38;9.88;;;;;;;;;;4971086;28;20507;-65
2022/10/28 04:49:52;;;;;;;12.90;8.65;;;;;;;;;;4970808;28;20387;-65
2022/10/28 04:52:17;;;;;;;17.30;9.32;;;;;;;;;;4970504;28;20358;-66
2022/10/28 04:54:43;;;;;;;14.77;9.23;;;;;;;;;;4970693;28;20479;-65
2022/10/28 04:57:08;;;;;;;19.90;9.80;;;;;;;;;;4970802;28;20475;-65
2022/10/28 04:59:33;;;;;;;18.25;9.75;;;;;;;;;;4970749;28;20452;-65
2022/10/28 05:01:59;;;;;;;22.88;10.40;;;;;;;;;;4970896;28;20088;-65
2022/10/28 05:04:24;;;;;;;24.45;12.07;;;;;;;;;;4952921;28;20416;-65
2022/10/28 05:06:49;;;;;;;20.80;10.10;;;;;;;;;;4970304;28;20424;-65
2022/10/28 05:09:15;;;;;;;25.00;12.95;;;;;;;;;;4970436;28;20423;-65
2022/10/28 05:11:40;;;;;;;25.98;12.95;;;;;;;;;;4970147;28;20555;-65
2022/10/28 05:14:06;;;;;;;24.55;13.45;;;;;;;;;;4970102;28;20468;-65
2022/10/28 05:16:31;;;;;;;29.17;13.98;;;;;;;;;;4970003;28;20436;-65
2022/10/28 05:18:57;;;;;;;24.02;13.38;;;;;;;;;;4970245;28;20410;-65
2022/10/28 05:21:22;;;;;;;22.10;11.18;;;;;;;;;;4970218;28;20396;-65
2022/10/28 05:23:48;;;;;;;19.98;11.43;;;;;;;;;;4969980;28;20459;-65
2022/10/28 05:26:13;;;;;;;17.83;9.45;;;;;;;;;;4952899;28;20348;-65
2022/10/28 05:28:38;;;;;;;17.88;10.45;;;;;;;;;;4969837;28;20474;-65
2022/10/28 05:31:04;;;;;;;21.75;10.57;;;;;;;;;;4970009;28;20429;-65
2022/10/28 05:33:29;;;;;;;23.42;12.13;;;;;;;;;;4970935;28;20428;-65
2022/10/28 05:35:54;;;;;;;17.83;9.88;;;;;;;;;;4970188;28;20390;-65
2022/10/28 05:38:20;;;;;;;20.25;11.98;;;;;;;;;;4952542;28;20468;-65
2022/10/28 05:40:45;;;;;;;23.00;12.57;;;;;;;;;;4969581;28;20096;-65
2022/10/28 05:43:10;;;;;;;19.17;10.60;;;;;;;;;;4969768;28;20372;-65
2022/10/28 05:45:36;;;;;;;20.98;10.43;;;;;;;;;;4971059;28;20444;-65
2022/10/28 05:48:01;;;;;;;19.48;9.95;;;;;;;;;;4970622;28;20452;-65
2022/10/28 05:50:26;;;;;;;22.33;11.20;;;;;;;;;;4969610;28;20382;-65
2022/10/28 05:52:54;;;;;;;25.27;11.27;;;;;;;;;;4969481;28;20421;-65
2022/10/28 05:55:20;;;;;;;22.00;11.05;;;;;;;;;;4969405;28;20423;-65
2022/10/28 05:57:47;;;;;;;23.60;11.35;;;;;;;;;;4970083;28;20341;-65
2022/10/28 06:00:13;;;;;;;23.23;11.15;;;;;;;;;;4969279;28;20433;-65
2022/10/28 06:02:39;;;;;;;21.67;12.20;;;;;;;;;;4951377;28;20384;-65
2022/10/28 06:05:04;;;;;;;21.13;10.85;;;;;;;;;;4935583;28;20384;-65
2022/10/28 06:07:30;;;;;;;21.73;11.00;;;;;;;;;;4969235;28;20400;-65
2022/10/28 06:09:55;;;;;;;22.00;10.63;;;;;;;;;;4969675;28;20333;-65
2022/10/28 06:12:20;;;;;;;23.00;10.65;;;;;;;;;;4969032;28;20029;-65
2022/10/28 06:14:46;;;;;;;22.33;10.52;;;;;;;;;;4969907;28;20443;-65
2022/10/28 06:17:11;;;;;;;16.98;9.73;;;;;;;;;;4968999;28;20552;-65
2022/10/28 06:19:36;;;;;;;20.15;10.70;;;;;;;;;;4971333;28;20490;-65
2022/10/28 06:22:02;;;;;;;23.85;10.85;;;;;;;;;;4968796;28;20092;-66
2022/10/28 06:24:27;;;;;;;25.13;10.55;;;;;;;;;;4968725;28;20452;-65
2022/10/28 06:26:52;;;;;;;21.88;10.63;;;;;;;;;;4968828;28;20456;-65
2022/10/28 06:29:19;;;;;;;21.23;9.95;;;;;;;;;;4969585;28;20452;-65
2022/10/28 06:31:44;;;;;;;19.92;10.20;;;;;;;;;;4950661;28;20371;-65
2022/10/28 06:34:11;;;;;;;20.67;10.10;;;;;;;;;;4968858;28;20345;-65
2022/10/28 06:36:38;;;;;;;20.27;10.35;;;;;;;;;;4970321;28;20590;-65
2022/10/28 06:39:04;;;;;;;18.17;9.40;;;;;;;;;;4968694;28;20376;-65
2022/10/28 06:41:29;;;;;;;19.40;9.23;;;;;;;;;;4951326;28;20451;-65
2022/10/28 06:43:55;;;;;;;19.83;10.02;;;;;;;;;;4968587;28;20519;-65
2022/10/28 06:46:20;;;;;;;17.63;8.75;;;;;;;;;;4969296;28;20495;-65
2022/10/28 06:48:45;;;;;;;18.45;10.57;;;;;;;;;;4968703;28;20360;-65
2022/10/28 06:51:11;;;;;;;18.27;10.70;;;;;;;;;;4967991;28;20056;-65
2022/10/28 06:53:36;;;;;;;23.48;11.77;;;;;;;;;;4969833;28;20419;-65
2022/10/28 06:56:01;;;;;;;22.35;11.63;;;;;;;;;;4968397;28;20528;-65
2022/10/28 06:58:27;;;;;;;25.92;12.98;;;;;;;;;;4968201;28;20441;-65
2022/10/28 07:00:52;;;;;;;23.52;13.15;;;;;;;;;;4950453;28;20047;-65
2022/10/28 07:03:18;;;;;;;26.15;13.02;;;;;;;;;;4968546;28;20045;-65
2022/10/28 07:05:44;;;;;;;20.27;11.52;;;;;;;;;;4968337;28;20069;-65
2022/10/28 07:08:10;;;;;;;17.27;10.10;;;;;;;;;;4950434;28;20379;-65
2022/10/28 07:10:35;;;;;;;21.13;11.88;;;;;;;;;;4968131;28;20415;-66
2022/10/28 07:13:00;;;;;;;18.90;10.20;;;;;;;;;;4968625;28;20052;-65
2022/10/28 07:15:26;;;;;;;20.13;11.38;;;;;;;;;;4967831;28;20433;-65
2022/10/28 07:17:53;;;;;;;16.65;10.10;;;;;;;;;;4950339;28;20453;-65
2022/10/28 07:20:18;;;;;;;19.65;10.40;;;;;;;;;;4968343;28;20424;-65
2022/10/28 07:22:43;;;;;;;17.23;10.05;;;;;;;;;;4969876;28;20409;-65
2022/10/28 07:25:09;;;;;;;24.70;11.45;;;;;;;;;;4967833;28;20449;-65
2022/10/28 07:27:34;;;;;;;20.25;10.65;;;;;;;;;;4968314;28;20507;-65
2022/10/28 07:29:59;;;;;;;17.88;10.63;;;;;;;;;;4968957;28;20421;-65
2022/10/28 07:32:25;;;;;;;13.40;9.02;;;;;;;;;;4967747;28;20480;-65
2022/10/28 07:34:50;;;;;;;13.25;8.50;;;;;;;;;;4967805;28;20557;-65
2022/10/28 07:37:15;;;;;;;11.40;7.60;;;;;;;;;;4967584;28;20025;-65
2022/10/28 07:39:41;;;;;;;15.98;8.30;;;;;;;;;;4967973;28;20322;-65
2022/10/28 07:42:06;;;;;;;15.32;9.38;;;;;;;;;;4967604;28;20045;-66
2022/10/28 07:44:31;;;;;;;14.38;7.53;;;;;;;;;;4969175;28;20421;-65
2022/10/28 07:46:57;;;;;;;15.90;8.18;;;;;;;;;;4950119;28;20417;-65
2022/10/28 07:49:22;;;;;;;13.77;7.97;;;;;;;;;;4967438;28;20474;-65
2022/10/28 07:51:49;;;;;;;13.32;7.80;;;;;;;;;;4967463;28;20506;-65
2022/10/28 07:54:14;;;;;;;13.48;8.00;;;;;;;;;;4968228;28;20428;-65
2022/10/28 07:56:40;;;;;;;16.35;8.07;;;;;;;;;;4967435;28;20498;-65
2022/10/28 07:59:05;;;;;;;13.20;7.70;;;;;;;;;;4967607;28;20503;-65
2022/10/28 08:01:31;;;;;;;14.45;8.63;;;;;;;;;;4967929;28;20624;-64
2022/10/28 08:03:56;;;;;;;15.25;8.23;;;;;;;;;;4969933;28;20391;-64
2022/10/28 08:06:22;;;;;;;14.65;8.73;;;;;;;;;;4971363;28;20364;-65
2022/10/28 08:08:48;;;;;;;13.57;8.20;;;;;;;;;;4971081;28;20467;-64
2022/10/28 08:11:16;;;;;;;13.50;8.50;;;;;;;;;;4971340;28;20511;-64
2022/10/28 08:13:41;;;;;;;14.40;8.07;;;;;;;;;;4971323;28;20025;-64
2022/10/28 08:16:07;;;;;;;11.48;7.90;;;;;;;;;;4971337;28;20450;-65
2022/10/28 08:18:34;;;;;;;17.60;8.50;;;;;;;;;;4953414;28;20444;-64
2022/10/28 08:21:00;;;;;;;13.10;7.82;;;;;;;;;;4971146;28;20075;-64
2022/10/28 08:23:27;;;;;;;14.05;8.25;;;;;;;;;;4970958;28;20388;-64
2022/10/28 08:25:52;;;;;;;12.23;7.47;;;;;;;;;;4953594;28;20034;-64
2022/10/28 08:28:18;;;;;;;14.90;7.60;;;;;;;;;;4970693;28;20021;-65
2022/10/28 08:30:44;;;;;;;11.88;7.45;;;;;;;;;;4971531;28;20420;-64
2022/10/28 08:33:09;;;;;;;11.35;7.03;;;;;;;;;;4970639;28;20486;-65
2022/10/28 08:35:35;;;;;;;14.00;8.07;;;;;;;;;;4972071;28;20430;-64
2022/10/28 08:38:01;;;;;;;13.95;7.30;;;;;;;;;;4970843;28;20424;-64
2022/10/28 08:41:07;;;;;;;13.10;8.27;;;;;;;;;;4971741;28;20029;-64
2022/10/28 08:43:45;;;;;;;14.68;7.93;;;;;;;;;;4955243;28;20376;-64
2022/10/28 08:46:24;;;;;;;13.07;7.65;;;;;;;;;;4970817;28;20038;-65
2022/10/28 08:48:49;;;;;;;11.23;6.40;;;;;;;;;;4971569;28;20475;-64
2022/10/28 08:51:22;;;;;;;15.45;7.32;;;;;;;;;;4971196;28;20393;-65
2022/10/28 08:54:00;;;;;;;12.18;7.50;;;;;;;;;;4972108;28;20052;-64
2022/10/28 08:56:37;;;;;;;14.57;7.78;;;;;;;;;;4970419;28;20472;-64
2022/10/28 08:59:05;;;;;;;14.43;6.88;;;;;;;;;;4952889;28;20384;-65
2022/10/28 09:01:47;;;;;;;10.98;6.60;;;;;;;;;;4952498;28;20388;-64
2022/10/28 09:04:50;;;;;;;10.75;6.38;;;;;;;;;;4970288;28;20411;-64
2022/10/28 09:07:21;;;;;;;9.57;6.90;;;;;;;;;;4968847;28;20037;-64
2022/10/28 09:09:48;;;;;;;12.25;6.82;;;;;;;;;;4970063;28;20372;-64
2022/10/28 09:12:31;;;;;;;12.60;6.07;;;;;;;;;;4970179;28;20026;-64
2022/10/28 09:14:59;;;;;;;10.95;5.68;;;;;;;;;;4971994;28;20484;-64
2022/10/28 09:17:27;;;;;;;10.10;6.03;;;;;;;;;;4970020;28;20124;-64
2022/10/28 09:20:11;;;;;;;9.98;5.90;;;;;;;;;;4970964;28;20753;-64
2022/10/28 09:22:54;;;;;;;9.43;5.60;;;;;;;;;;4952172;28;20487;-64
2022/10/28 09:25:30;;;;;;;10.00;5.90;;;;;;;;;;4952082;28;20347;-64
2022/10/28 09:27:58;;;;;;;10.23;6.25;;;;;;;;;;4971632;28;20491;-64
2022/10/28 09:30:49;;;;;;;11.73;6.13;;;;;;;;;;4970104;28;20345;-64
2022/10/28 09:33:33;;;;;;;8.07;5.32;;;;;;;;;;4969729;28;20432;-64
2022/10/28 09:35:58;;;;;;;10.40;5.00;;;;;;;;;;4971664;28;20052;-64
2022/10/28 09:38:27;;;;;;;9.82;5.30;;;;;;;;;;4938555;28;20480;-64
2022/10/28 09:41:15;;;;;;;8.27;5.80;;;;;;;;;;4952015;28;20437;-64
2022/10/28 09:43:52;;;;;;;9.45;5.65;;;;;;;;;;4969702;28;20483;-64
2022/10/28 09:46:18;;;;;;;8.57;5.40;;;;;;;;;;4951822;28;20041;-64
2022/10/28 09:48:47;;;;;;;8.32;4.97;;;;;;;;;;4951651;28;20510;-64
2022/10/28 09:51:19;;;;;;;;;;;;;;;;;;4970262;28;20471;-64
2022/10/28 09:53:56;;;;;;;9.20;5.05;;;;;;;;;;4951471;28;20259;-65
2022/10/28 09:56:21;;;;;;;11.15;5.97;;;;;;;;;;4969099;28;20470;-64
2022/10/28 09:58:48;;;;;;;8.90;5.15;;;;;;;;;;4951394;28;20367;-64
2022/10/28 10:01:15;;;;;;;9.05;4.95;;;;;;;;;;4951577;28;20432;-66
2022/10/28 10:03:42;;;;;;;10.68;4.97;;;;;;;;;;4969401;28;20440;-64
2022/10/28 10:06:16;;;;;;;7.70;5.03;;;;;;;;;;4951297;28;20056;-64
2022/10/28 10:08:43;;;;;;;7.70;5.22;;;;;;;;;;4970656;28;20510;-64
2022/10/28 10:11:28;;;;;;;8.27;5.15;;;;;;;;;;4969062;28;20357;-64
2022/10/28 10:13:54;;;;;;;10.50;5.50;;;;;;;;;;4968899;28;20535;-64
2022/10/28 10:16:32;;;;;;;9.55;5.03;;;;;;;;;;4951112;28;20421;-64
2022/10/28 10:19:00;;;;;;;8.85;4.95;;;;;;;;;;4969648;28;20460;-64
2022/10/28 10:21:44;;;;;;;10.48;4.97;;;;;;;;;;4951413;28;20447;-64
2022/10/28 10:24:39;;;;;;;7.80;4.65;;;;;;;;;;4969454;28;20432;-64
2022/10/28 10:27:18;;;;;;;8.25;4.38;;;;;;;;;;4945697;28;20445;-64
2022/10/28 10:29:44;;;;;;;;;;;;;;;;;;4952137;28;20021;-64
2022/10/28 10:32:24;;;;;;;6.70;4.60;;;;;;;;;;4969362;28;20419;-64
2022/10/28 10:35:01;;;;;;;6.47;3.95;;;;;;;;;;4968464;28;20428;-64
2022/10/28 10:37:28;;;;;;;8.27;4.90;;;;;;;;;;4968912;28;20056;-65
2022/10/28 10:40:04;;;;;;;6.60;4.30;;;;;;;;;;4950868;28;20112;-65
2022/10/28 10:42:29;;;;;;;9.38;5.15;;;;;;;;;;4950631;28;20048;-64
2022/10/28 10:45:01;;;;;;;8.75;4.55;;;;;;;;;;4968341;28;20433;-65
2022/10/28 10:47:27;;;;;;;7.50;4.38;;;;;;;;;;4968363;28;20472;-65
2022/10/28 10:50:16;;;;;;;8.18;4.57;;;;;;;;;;4968485;28;20454;-65
2022/10/28 10:52:47;;;;;;;7.35;4.05;;;;;;;;;;4951283;28;20506;-65
2022/10/28 10:55:21;;;;;;;6.25;3.97;;;;;;;;;;4968876;28;20179;-64
2022/10/28 10:57:47;;;;;;;7.10;4.45;;;;;;;;;;4951673;28;20336;-64
2022/10/28 11:00:19;;;;;;;6.70;4.63;;;;;;;;;;4969011;28;20379;-64
2022/10/28 11:02:45;;;;;;;8.40;4.10;;;;;;;;;;4950593;28;20460;-65
2022/10/28 11:05:11;;;;;;;9.73;4.75;;;;;;;;;;4950454;28;20033;-64
2022/10/28 11:07:39;;;;;;;8.48;4.47;;;;;;;;;;4950207;28;20448;-64
2022/10/28 11:10:05;;;;;;;6.13;4.03;;;;;;;;;;4950843;28;20017;-65
2022/10/28 11:12:37;;;;;;;9.85;4.70;;;;;;;;;;4950174;28;20333;-65
2022/10/28 11:15:23;;;;;;;7.30;3.92;;;;;;;;;;4968388;28;20463;-65
2022/10/28 11:18:03;;;;;;;6.68;3.63;;;;;;;;;;4969141;28;20471;-64
2022/10/28 11:20:57;;;;;;;6.15;4.07;;;;;;;;;;4950223;28;20459;-64
2022/10/28 11:23:38;;;;;;;6.45;3.90;;;;;;;;;;4950189;28;20440;-65
2022/10/28 11:26:06;;;;;;;6.90;3.90;;;;;;;;;;4967913;28;20429;-64
2022/10/28 11:29:09;;;;;;;7.45;4.25;;;;;;;;;;4950201;28;20048;-64
2022/10/28 11:31:56;;;;;;;5.80;3.63;;;;;;;;;;4967862;28;20502;-64
2022/10/28 11:34:34;;;;;;;6.03;4.05;;;;;;;;;;4948443;28;20508;-64
2022/10/28 11:37:08;;;;;;;11.77;3.80;;;;;;;;;;4949931;28;20425;-64
2022/10/28 11:39:41;;;;;;;11.80;4.03;;;;;;;;;;4955491;28;20447;-64
2022/10/28 11:42:17;;;;;;;6.10;4.25;;;;;;;;;;4936927;28;20464;-64
2022/10/28 11:44:44;;;;;;;5.90;3.47;;;;;;;;;;4953591;28;20424;-64
2022/10/28 11:47:35;;;;;;;7.22;3.95;;;;;;;;;;4954791;28;20137;-64
2022/10/28 11:50:06;;;;;;;7.35;3.97;;;;;;;;;;4954729;28;20445;-64
2022/10/28 11:52:56;;;;;;;8.02;4.10;;;;;;;;;;4955043;28;20482;-64
2022/10/28 11:55:27;;;;;;;9.13;4.82;;;;;;;;;;4953011;28;20085;-64
2022/10/28 11:58:14;;;;;;;7.20;4.07;;;;;;;;;;4954336;28;20338;-65
2022/10/28 12:00:45;;;;;;;7.95;4.45;;;;;;;;;;4937121;28;20396;-64
2022/10/28 12:03:56;;;;;;;7.05;4.43;;;;;;;;;;4954345;28;20363;-64
2022/10/28 12:06:38;;;;;;;11.40;4.60;;;;;;;;;;4954455;28;20449;-64
2022/10/28 12:09:29;;;;;;;8.20;4.40;;;;;;;;;;4937007;28;20449;-64
2022/10/28 12:12:00;;;;;;;10.10;5.32;;;;;;;;;;4936821;28;20340;-65
2022/10/28 12:14:51;;;;;;;7.63;4.90;;;;;;;;;;4955109;28;20463;-64
2022/10/28 12:17:42;;;;;;;7.90;4.50;;;;;;;;;;4954312;28;20116;-64
2022/10/28 12:20:21;;;;;;;9.68;4.95;;;;;;;;;;4948594;28;20046;-64
2022/10/28 12:22:48;;;;;;;6.20;3.90;;;;;;;;;;4954201;28;20508;-64
2022/10/28 12:25:22;;;;;;;7.57;4.38;;;;;;;;;;4954315;28;20061;-64
2022/10/28 12:27:49;;;;;;;8.05;4.22;;;;;;;;;;4953018;28;20046;-64
2022/10/28 12:30:19;;;;;;;6.45;3.85;;;;;;;;;;4937163;28;20457;-64
2022/10/28 12:32:46;;;;;;;10.73;5.03;;;;;;;;;;4936901;28;20608;-64
2022/10/28 12:35:19;;;;;;;8.50;4.93;;;;;;;;;;4955704;28;20339;-64
2022/10/28 12:37:50;;;;;;;7.88;4.45;;;;;;;;;;4954024;28;20068;-64
2022/10/28 12:40:23;;;;;;;7.07;3.97;;;;;;;;;;4954583;28;20567;-64
2022/10/28 12:42:53;;;;;;;9.63;4.10;;;;;;;;;;4954060;28;20341;-64
2022/10/28 12:45:20;;;;;;;11.48;4.03;;;;;;;;;;4936406;28;20364;-64
2022/10/28 12:47:57;;;;;;;7.85;4.53;;;;;;;;;;4954271;28;20437;-64
2022/10/28 12:50:43;;;;;;;6.25;3.88;;;;;;;;;;4932812;28;20455;-64
2022/10/28 12:53:34;;;;;;;7.70;4.30;;;;;;;;;;4933702;28;20448;-64
2022/10/28 12:56:01;;;;;;;7.80;3.90;;;;;;;;;;4933027;28;20322;-64
2022/10/28 12:58:33;;;;;;;7.43;3.97;;;;;;;;;;4933412;28;20341;-65
2022/10/28 13:01:17;;;;;;;6.68;4.53;;;;;;;;;;4933132;28;20352;-64
2022/10/28 13:03:43;;;;;;;8.88;4.28;;;;;;;;;;4951598;28;20025;-64
2022/10/28 13:06:40;;;;;;;12.30;3.83;;;;;;;;;;4950730;28;20038;-65
2022/10/28 13:09:39;;;;;;;7.63;3.78;;;;;;;;;;4950686;28;20400;-64
2022/10/28 13:12:04;;;;;;;;;;;;;;;;;;4933515;28;20453;-64
2022/10/28 13:15:04;;;;;;;6.17;4.10;;;;;;;;;;4950416;28;20399;-64
2022/10/28 13:17:54;;;;;;;7.25;4.35;;;;;;;;;;4919389;28;20687;-64
2022/10/28 13:20:41;;;;;;;7.85;4.35;;;;;;;;;;4950279;28;20323;-64
2022/10/28 13:23:15;;;;;;;8.00;4.00;;;;;;;;;;4951400;28;20342;-64
2022/10/28 13:25:56;;;;;;;6.78;4.22;;;;;;;;;;4950476;28;20426;-64
2022/10/28 13:28:22;;;;;;;9.48;4.32;;;;;;;;;;4932930;28;20367;-64
2022/10/28 13:30:56;;;;;;;6.22;3.45;;;;;;;;;;4933343;28;20535;-64
2022/10/28 13:33:26;;;;;;;7.30;4.22;;;;;;;;;;4916403;28;20349;-64
2022/10/28 13:35:53;;;;;;;8.63;4.22;;;;;;;;;;4932545;28;20133;-64
2022/10/28 13:38:22;;;;;;;5.85;3.85;;;;;;;;;;4932664;28;20388;-64
2022/10/28 13:40:53;;;;;;;6.25;3.65;;;;;;;;;;4950785;28;20055;-64
2022/10/28 13:43:22;;;;;;;7.03;3.92;;;;;;;;;;4952325;28;20437;-64
2022/10/28 13:45:52;;;;;;;;;;;;;;;;;;4947950;28;20400;-64
2022/10/28 13:48:39;;;;;;;8.23;3.75;;;;;;;;;;4916275;28;20300;-64
2022/10/28 13:51:07;;;;;;;7.45;4.03;;;;;;;;;;4950099;28;20069;-64
2022/10/28 13:53:41;;;;;;;5.88;3.75;;;;;;;;;;4949800;28;20388;-64
2022/10/28 13:56:35;;;;;;;5.72;3.42;;;;;;;;;;4950001;28;20406;-64
2022/10/28 13:59:13;;;;;;;7.10;3.35;;;;;;;;;;4950610;28;20352;-64
2022/10/28 14:01:53;;;;;;;6.60;3.83;;;;;;;;;;4948560;28;20441;-64
2022/10/28 14:04:23;;;;;;;7.03;4.40;;;;;;;;;;4932226;28;20475;-64
2022/10/28 14:06:49;;;;;;;6.97;3.83;;;;;;;;;;4950421;28;20385;-64
2022/10/28 14:09:27;;;;;;;8.32;3.60;;;;;;;;;;4950080;28;20376;-64
2022/10/28 14:12:07;;;;;;;8.73;4.20;;;;;;;;;;4931739;28;20037;-64
2022/10/28 14:14:33;;;;;;;6.57;3.33;;;;;;;;;;4949428;28;20062;-65
2022/10/28 14:16:58;;;;;;;6.32;3.80;;;;;;;;;;4931971;28;20056;-64
2022/10/28 14:19:23;;;;;;;5.85;3.75;;;;;;;;;;4949790;28;20458;-64
2022/10/28 14:21:56;;;;;;;8.23;3.38;;;;;;;;;;4931906;28;20337;-64
2022/10/28 14:24:37;;;;;;;6.05;3.50;;;;;;;;;;4931822;28;20053;-64
2022/10/28 14:27:14;;;;;;;6.20;3.85;;;;;;;;;;4950544;28;20096;-64
2022/10/28 14:30:10;;;;;;;6.70;4.20;;;;;;;;;;4951222;28;20425;-64
2022/10/28 14:33:09;;;;;;;6.40;3.53;;;;;;;;;;4956639;28;20495;-64
2022/10/28 14:35:43;;;;;;;5.82;3.70;;;;;;;;;;4950625;28;20321;-64
2022/10/28 14:38:45;;;;;;;7.32;3.72;;;;;;;;;;4968523;28;20368;-64
2022/10/28 14:41:24;;;;;;;5.28;3.33;;;;;;;;;;4950803;28;20104;-64
2022/10/28 14:43:56;;;;;;;6.93;3.53;;;;;;;;;;4968547;28;20417;-64
2022/10/28 14:46:47;;;;;;;6.68;3.42;;;;;;;;;;4968187;28;20419;-64
2022/10/28 14:49:25;;;;;;;5.93;2.83;;;;;;;;;;4968537;28;20353;-64
2022/10/28 14:51:51;;;;;;;6.68;4.15;;;;;;;;;;4950410;28;20099;-64
2022/10/28 14:54:26;;;;;;;6.15;3.30;;;;;;;;;;4950925;28;20037;-64
2022/10/28 14:56:54;;;;;;;18.45;4.10;;;;;;;;;;4950396;28;20401;-64